Cold Spring, Nevada
Current Conditions -  °F | °C
As of 1:56 PM on Tuesday 21 Oct 2014 (Local Time) from KNFL Reporting Station
Broken Clouds Broken Clouds  
Wind Chill: 60°   Ceiling: 25000
Heat Index: 60°   Visibility: 10mi
Dew Point: 24°   Wind: 6mph
Humidity: 25%   Direction: 350°N
Pressure: 30.06"   Gusts: NA
Location:  39.5809°N, 118.333°W
Report Text: KNFL 212056Z 35005KT 10SM FEW100 FEW160 BKN250 16/M04 A3006 RMK AO2 SLP148 T01561044 58018
Loading
Personal Weather Stations






























Interactive Weather Map
Tropical Storm Tracking
New forecast layout! Learn more

10-Day Weather Forecast

Advertisements
Track Severe Weather on mobile